Time;durP1;ratioP1;P1;durP2;ratioP2;P2;SDS_P1;SDS_P2;PMS_P1;PMS_P2;Temp;Humidity;BMP_temperature;BMP_pressure;BME280_temperature;BME280_humidity;BME280_pressure;Samples;Min_cycle;Max_cycle;Signal;HPM_P1;HPM_P2
2023/10/22 00:00:47;;;;;;;0.40;0.38;;;14.20;82.80;;;;;;5101050;28;20521;-78
2023/10/22 00:03:12;;;;;;;0.65;0.40;;;14.20;82.80;;;;;;5114191;28;20158;-78
2023/10/22 00:05:38;;;;;;;0.73;0.30;;;14.20;82.90;;;;;;5113811;28;20115;-79
2023/10/22 00:08:04;;;;;;;0.75;0.43;;;14.10;83.10;;;;;;5097929;28;20032;-77
2023/10/22 00:10:30;;;;;;;0.30;0.30;;;14.10;83.30;;;;;;5115960;28;20109;-79
2023/10/22 00:12:56;;;;;;;1.15;0.40;;;14.10;83.40;;;;;;5117767;28;20043;-79
2023/10/22 00:15:23;;;;;;;1.02;0.40;;;14.10;83.40;;;;;;5081110;28;20063;-79
2023/10/22 00:17:49;;;;;;;1.85;0.40;;;14.00;83.40;;;;;;5101602;28;20066;-79
2023/10/22 00:20:15;;;;;;;1.83;0.40;;;14.00;83.50;;;;;;5097816;28;20028;-78
2023/10/22 00:22:41;;;;;;;1.17;0.35;;;14.10;83.60;;;;;;5115574;28;20040;-77
2023/10/22 00:25:08;;;;;;;0.90;0.40;;;14.10;83.50;;;;;;5115850;28;20461;-79
2023/10/22 00:27:34;;;;;;;1.98;0.50;;;14.10;83.50;;;;;;5116485;28;20119;-78
2023/10/22 00:30:00;;;;;;;0.28;0.20;;;14.10;83.50;;;;;;5115150;28;20505;-78
2023/10/22 00:32:26;;;;;;;0.20;0.20;;;14.10;83.50;;;;;;5117743;28;20078;-79
2023/10/22 00:34:52;;;;;;;0.70;0.40;;;14.10;83.60;;;;;;5115873;28;20599;-78
2023/10/22 00:37:17;;;;;;;0.40;0.40;;;14.00;83.50;;;;;;5111369;28;20050;-78
2023/10/22 00:39:43;;;;;;;1.08;0.40;;;14.10;83.70;;;;;;5096733;28;20040;-78
2023/10/22 00:42:10;;;;;;;1.35;0.40;;;14.10;83.70;;;;;;5114624;28;20403;-78
2023/10/22 00:44:36;;;;;;;0.35;0.30;;;14.00;83.60;;;;;;5113318;28;20376;-78
2023/10/22 00:47:03;;;;;;;0.30;0.30;;;14.00;83.60;;;;;;5115084;28;20051;-78
2023/10/22 00:49:30;;;;;;;1.35;0.40;;;14.10;83.70;;;;;;5113159;28;20111;-78
2023/10/22 00:51:56;;;;;;;0.30;0.30;;;14.10;83.70;;;;;;5113327;28;20437;-78
2023/10/22 00:54:24;;;;;;;1.40;0.60;;;14.10;83.70;;;;;;5094553;28;20036;-78
2023/10/22 00:56:51;;;;;;;1.33;0.63;;;14.10;83.70;;;;;;5095387;28;20127;-79
2023/10/22 00:59:17;;;;;;;0.50;0.38;;;14.10;83.70;;;;;;5115555;28;20024;-77
2023/10/22 01:01:43;;;;;;;0.65;0.45;;;14.10;83.70;;;;;;5096473;28;20488;-79
2023/10/22 01:04:08;;;;;;;0.50;0.35;;;14.10;83.70;;;;;;5113323;28;20073;-78
2023/10/22 01:06:36;;;;;;;0.20;0.20;;;14.00;83.70;;;;;;5112462;28;20081;-78
2023/10/22 01:09:02;;;;;;;1.70;0.63;;;14.00;83.80;;;;;;5114920;28;20487;-78
2023/10/22 01:11:28;;;;;;;1.80;0.60;;;14.00;83.90;;;;;;5095812;28;20559;-78
2023/10/22 01:13:54;;;;;;;0.32;0.32;;;14.00;84.10;;;;;;5112679;28;20059;-79
2023/10/22 01:16:20;;;;;;;0.88;0.50;;;13.90;84.10;;;;;;5117727;28;20395;-78
2023/10/22 01:18:45;;;;;;;1.50;0.60;;;13.90;84.20;;;;;;5113920;28;20039;-78
2023/10/22 01:21:11;;;;;;;0.65;0.40;;;13.90;84.40;;;;;;5100804;28;20418;-77
2023/10/22 01:23:38;;;;;;;0.68;0.40;;;13.80;84.40;;;;;;5113610;28;20032;-78
2023/10/22 01:26:06;;;;;;;1.77;0.60;;;13.80;84.50;;;;;;5094702;28;20056;-79
2023/10/22 01:28:33;;;;;;;1.27;0.40;;;13.80;84.50;;;;;;5096203;28;20039;-79
2023/10/22 01:30:59;;;;;;;2.97;0.50;;;13.90;84.50;;;;;;5097051;28;20039;-78
2023/10/22 01:33:24;;;;;;;0.88;0.40;;;13.80;84.10;;;;;;5119346;28;20103;-78
2023/10/22 01:35:51;;;;;;;0.50;0.32;;;13.90;84.50;;;;;;5096261;28;20046;-78
2023/10/22 01:38:16;;;;;;;1.27;0.35;;;13.90;84.60;;;;;;5096752;28;20035;-80
2023/10/22 01:40:42;;;;;;;0.65;0.38;;;13.80;84.50;;;;;;5099127;28;20100;-78
2023/10/22 01:43:08;;;;;;;1.05;0.60;;;13.80;84.60;;;;;;5116222;28;20028;-78
2023/10/22 01:45:34;;;;;;;0.77;0.40;;;13.90;84.70;;;;;;5115088;28;20159;-78
2023/10/22 01:48:00;;;;;;;1.15;0.47;;;13.90;84.80;;;;;;5114385;28;20055;-79
2023/10/22 01:50:25;;;;;;;0.63;0.43;;;13.80;84.70;;;;;;5115956;28;20028;-78
2023/10/22 01:52:51;;;;;;;0.40;0.40;;;13.90;84.80;;;;;;5116118;28;20039;-79
2023/10/22 01:55:17;;;;;;;0.52;0.40;;;13.90;84.80;;;;;;5114964;28;20126;-78
2023/10/22 01:57:43;;;;;;;0.28;0.28;;;13.90;84.80;;;;;;5115581;28;20487;-78
2023/10/22 02:00:12;;;;;;;0.70;0.38;;;13.80;84.80;;;;;;5101284;28;20114;-78
2023/10/22 02:02:39;;;;;;;0.95;0.52;;;13.80;84.80;;;;;;5109905;28;20094;-78
2023/10/22 02:05:05;;;;;;;0.88;0.40;;;13.80;84.80;;;;;;5098967;28;20036;-78
2023/10/22 02:07:31;;;;;;;0.30;0.30;;;13.80;84.80;;;;;;5115092;28;20039;-79
2023/10/22 02:09:57;;;;;;;1.15;0.50;;;13.80;84.90;;;;;;5093351;28;20032;-78
2023/10/22 02:12:27;;;;;;;0.90;0.60;;;13.80;85.10;;;;;;5077437;28;20119;-77
2023/10/22 02:14:53;;;;;;;0.82;0.52;;;13.70;85.30;;;;;;5111801;28;20031;-78
2023/10/22 02:17:19;;;;;;;1.45;0.50;;;13.70;85.50;;;;;;5111359;28;20051;-77
2023/10/22 02:19:45;;;;;;;0.45;0.45;;;13.50;85.60;;;;;;5093204;28;20127;-77
2023/10/22 02:22:12;;;;;;;0.93;0.50;;;13.50;85.90;;;;;;5112510;28;20040;-77
2023/10/22 02:24:38;;;;;;;1.65;0.60;;;13.40;86.10;;;;;;5112407;28;20036;-78
2023/10/22 02:27:03;;;;;;;1.73;0.70;;;13.40;86.30;;;;;;5109876;28;20506;-78
2023/10/22 02:29:30;;;;;;;0.85;0.60;;;13.30;86.60;;;;;;5110858;28;21366;-78
2023/10/22 02:31:56;;;;;;;0.50;0.50;;;13.20;86.80;;;;;;5109302;28;20127;-78
2023/10/22 02:34:21;;;;;;;0.52;0.40;;;13.10;87.10;;;;;;5076823;28;20134;-78
2023/10/22 02:36:47;;;;;;;0.30;0.30;;;13.00;87.30;;;;;;5112053;28;20039;-79
2023/10/22 02:39:13;;;;;;;0.35;0.35;;;12.90;87.50;;;;;;5093333;28;20040;-78
2023/10/22 02:41:38;;;;;;;1.00;0.57;;;12.90;87.70;;;;;;5093474;28;20078;-77
2023/10/22 02:44:04;;;;;;;0.50;0.50;;;12.90;87.90;;;;;;5110421;28;20036;-77
2023/10/22 02:46:30;;;;;;;0.68;0.40;;;12.90;88.00;;;;;;5112433;28;20486;-78
2023/10/22 02:48:58;;;;;;;0.85;0.50;;;12.90;88.20;;;;;;5110545;28;20076;-78
2023/10/22 02:51:23;;;;;;;1.30;0.50;;;12.80;88.20;;;;;;5112202;28;20035;-78
2023/10/22 02:53:49;;;;;;;0.80;0.50;;;12.80;88.30;;;;;;5110655;28;20043;-78
2023/10/22 02:56:16;;;;;;;0.90;0.52;;;12.80;88.30;;;;;;5112268;28;20101;-77
2023/10/22 02:58:41;;;;;;;1.55;0.60;;;12.80;88.40;;;;;;5068549;28;20132;-78
2023/10/22 03:01:09;;;;;;;1.10;0.70;;;12.80;88.50;;;;;;5069155;28;20465;-77
2023/10/22 03:03:38;;;;;;;2.00;0.70;;;12.80;88.50;;;;;;5054714;28;20036;-78
2023/10/22 03:06:06;;;;;;;2.30;0.70;;;12.80;88.50;;;;;;5072105;28;20530;-77
2023/10/22 03:08:33;;;;;;;0.70;0.70;;;12.80;88.60;;;;;;5039369;28;20032;-77
2023/10/22 03:10:59;;;;;;;1.00;0.70;;;12.80;88.60;;;;;;5055329;28;20037;-78
2023/10/22 03:13:25;;;;;;;0.65;0.50;;;12.70;88.60;;;;;;5039115;28;20043;-79
2023/10/22 03:15:50;;;;;;;1.23;0.70;;;12.80;88.70;;;;;;5038883;28;20036;-78
2023/10/22 03:18:16;;;;;;;0.82;0.60;;;12.80;88.80;;;;;;5022433;28;20491;-77
2023/10/22 03:20:42;;;;;;;1.77;0.50;;;12.80;88.70;;;;;;5056206;28;20052;-77
2023/10/22 03:23:08;;;;;;;1.13;0.70;;;12.70;88.70;;;;;;5055067;28;20033;-77
2023/10/22 03:25:34;;;;;;;2.13;0.75;;;12.80;88.70;;;;;;5055380;28;20036;-78
2023/10/22 03:28:00;;;;;;;0.43;0.40;;;12.80;88.80;;;;;;5071977;28;20465;-77
2023/10/22 03:30:26;;;;;;;0.60;0.60;;;12.70;88.80;;;;;;5087600;28;20119;-77
2023/10/22 03:32:55;;;;;;;0.65;0.57;;;12.80;88.90;;;;;;5114609;28;20063;-77
2023/10/22 03:35:22;;;;;;;0.57;0.50;;;12.80;88.90;;;;;;5096161;28;21381;-77
2023/10/22 03:37:47;;;;;;;0.70;0.60;;;12.80;88.90;;;;;;5095283;28;20040;-77
2023/10/22 03:40:13;;;;;;;0.93;0.65;;;12.80;89.00;;;;;;5113455;28;20062;-78
2023/10/22 03:42:39;;;;;;;1.23;0.57;;;12.90;89.10;;;;;;5111926;28;20044;-78
2023/10/22 03:45:06;;;;;;;1.40;0.45;;;12.80;89.00;;;;;;5096004;28;20032;-78
2023/10/22 03:47:32;;;;;;;0.90;0.43;;;12.80;89.00;;;;;;5113678;28;20363;-77
2023/10/22 03:49:58;;;;;;;0.73;0.50;;;12.90;89.20;;;;;;5113800;28;20027;-77
2023/10/22 03:52:23;;;;;;;0.50;0.50;;;12.80;89.20;;;;;;5094666;28;20033;-78
2023/10/22 03:54:49;;;;;;;2.05;0.70;;;12.80;89.30;;;;;;5079304;28;20038;-77
2023/10/22 03:57:15;;;;;;;1.00;0.60;;;12.80;89.40;;;;;;5113300;28;20035;-78
2023/10/22 03:59:41;;;;;;;0.65;0.60;;;12.70;89.50;;;;;;5114192;28;20054;-78
2023/10/22 04:02:06;;;;;;;0.50;0.50;;;12.70;89.70;;;;;;5095867;28;20039;-78
2023/10/22 04:04:32;;;;;;;1.17;0.60;;;12.60;89.70;;;;;;5113924;28;20433;-78
2023/10/22 04:06:58;;;;;;;0.70;0.68;;;12.60;89.80;;;;;;5095893;28;20024;-77
2023/10/22 04:09:23;;;;;;;0.50;0.50;;;12.60;89.90;;;;;;5114734;28;20056;-77
2023/10/22 04:11:49;;;;;;;0.75;0.63;;;12.60;90.00;;;;;;5111754;28;20043;-77
2023/10/22 04:14:16;;;;;;;0.40;0.40;;;12.50;90.00;;;;;;5094838;28;20035;-77
2023/10/22 04:16:41;;;;;;;0.45;0.45;;;12.60;90.10;;;;;;5095492;28;20038;-78
2023/10/22 04:19:07;;;;;;;0.38;0.38;;;12.50;90.10;;;;;;5093804;28;20040;-78
2023/10/22 04:21:33;;;;;;;0.52;0.52;;;12.50;90.40;;;;;;5112512;28;20487;-77
2023/10/22 04:23:59;;;;;;;0.50;0.50;;;12.40;90.10;;;;;;5114656;28;20130;-77
2023/10/22 04:26:26;;;;;;;0.50;0.50;;;12.50;90.20;;;;;;5112946;28;20035;-78
2023/10/22 04:28:52;;;;;;;0.52;0.52;;;12.40;90.20;;;;;;5108402;28;20028;-79
2023/10/22 04:31:20;;;;;;;0.45;0.40;;;12.40;90.20;;;;;;5095114;28;20039;-78
2023/10/22 04:33:45;;;;;;;0.47;0.43;;;12.40;90.30;;;;;;5113683;28;20032;-78
2023/10/22 04:36:16;;;;;;;0.40;0.40;;;12.40;90.30;;;;;;5095412;28;20039;-77
2023/10/22 04:38:41;;;;;;;0.40;0.40;;;12.40;90.30;;;;;;5070834;28;20043;-78
2023/10/22 04:41:14;;;;;;;0.45;0.45;;;12.40;90.40;;;;;;5071396;28;20044;-77
2023/10/22 04:43:41;;;;;;;0.50;0.50;;;12.40;90.40;;;;;;5071705;28;20040;-78
2023/10/22 04:46:07;;;;;;;0.85;0.73;;;12.40;90.40;;;;;;5071197;28;20118;-78
2023/10/22 04:48:33;;;;;;;0.50;0.50;;;12.40;90.40;;;;;;5070880;28;20061;-78
2023/10/22 04:51:07;;;;;;;0.40;0.40;;;12.40;90.40;;;;;;5070891;28;20438;-77
2023/10/22 04:53:35;;;;;;;0.50;0.50;;;12.40;90.40;;;;;;5037500;28;20044;-77
2023/10/22 04:56:01;;;;;;;1.17;0.50;;;12.40;90.50;;;;;;5037707;28;20032;-78
2023/10/22 04:58:28;;;;;;;0.50;0.50;;;12.40;90.50;;;;;;5037570;28;20037;-78
2023/10/22 05:00:54;;;;;;;0.57;0.38;;;12.40;90.50;;;;;;5053908;28;20059;-77
2023/10/22 05:03:20;;;;;;;0.50;0.50;;;12.40;90.50;;;;;;5071203;28;20541;-78
2023/10/22 05:05:46;;;;;;;1.15;0.57;;;12.40;90.50;;;;;;5053926;28;20040;-78
2023/10/22 05:08:12;;;;;;;0.52;0.52;;;12.40;90.50;;;;;;5030503;28;20077;-78
2023/10/22 05:10:39;;;;;;;0.52;0.52;;;12.40;90.50;;;;;;5033616;28;20043;-78
2023/10/22 05:13:05;;;;;;;0.80;0.70;;;12.40;90.50;;;;;;5016052;28;20033;-77
2023/10/22 05:15:31;;;;;;;0.60;0.60;;;12.40;90.50;;;;;;5050592;28;20053;-77
2023/10/22 05:17:57;;;;;;;0.80;0.80;;;12.40;90.50;;;;;;5050513;28;20041;-77
2023/10/22 05:20:30;;;;;;;1.60;0.93;;;12.40;90.50;;;;;;5049776;28;20119;-77
2023/10/22 05:22:57;;;;;;;2.45;0.90;;;12.40;90.50;;;;;;5050605;28;20057;-78
2023/10/22 05:25:23;;;;;;;1.13;0.93;;;12.40;90.50;;;;;;5050549;28;20537;-78
2023/10/22 05:27:49;;;;;;;2.20;1.17;;;12.40;90.50;;;;;;5049209;28;20060;-77
2023/10/22 05:30:15;;;;;;;1.90;0.98;;;12.40;90.50;;;;;;5050785;28;20037;-78
2023/10/22 05:32:41;;;;;;;0.98;0.90;;;12.40;90.50;;;;;;5050334;28;20048;-77
2023/10/22 05:35:07;;;;;;;1.83;0.93;;;12.40;90.50;;;;;;5050544;28;20057;-78
2023/10/22 05:37:33;;;;;;;1.55;1.10;;;12.30;90.50;;;;;;5000041;28;20060;-78
2023/10/22 05:40:00;;;;;;;0.80;0.80;;;12.30;90.80;;;;;;5101935;28;20043;-78
2023/10/22 05:42:26;;;;;;;0.95;0.85;;;12.20;90.60;;;;;;5094468;28;20052;-77
2023/10/22 05:44:51;;;;;;;0.68;0.68;;;12.20;90.60;;;;;;5094580;28;20368;-77
2023/10/22 05:47:17;;;;;;;1.30;0.80;;;12.20;90.70;;;;;;5110569;28;20107;-78
2023/10/22 05:49:43;;;;;;;1.20;0.82;;;12.10;90.70;;;;;;5111410;28;20036;-78
2023/10/22 05:52:09;;;;;;;0.95;0.68;;;12.10;90.70;;;;;;5093517;28;20040;-78
2023/10/22 05:54:36;;;;;;;1.00;0.82;;;12.10;90.80;;;;;;5076984;28;20371;-78
2023/10/22 05:57:02;;;;;;;0.70;0.70;;;12.10;90.80;;;;;;5111387;28;20043;-79
2023/10/22 05:59:28;;;;;;;1.42;0.93;;;12.10;90.80;;;;;;5112880;28;20043;-78
2023/10/22 06:01:54;;;;;;;1.25;0.77;;;12.10;90.80;;;;;;5076262;28;20044;-79
2023/10/22 06:04:20;;;;;;;0.70;0.70;;;12.10;90.80;;;;;;5077340;28;20446;-78
2023/10/22 06:06:45;;;;;;;1.38;1.00;;;12.10;91.10;;;;;;5092967;28;20035;-79
2023/10/22 06:09:12;;;;;;;1.42;0.75;;;12.00;90.90;;;;;;5112629;28;20076;-79
2023/10/22 06:11:39;;;;;;;0.88;0.70;;;12.00;90.90;;;;;;5093802;28;20089;-79
2023/10/22 06:14:06;;;;;;;0.65;0.65;;;12.00;90.90;;;;;;5094059;28;20038;-79
2023/10/22 06:16:32;;;;;;;0.93;0.75;;;12.10;90.90;;;;;;5093645;28;20395;-79
2023/10/22 06:18:58;;;;;;;0.60;0.60;;;12.10;90.90;;;;;;5077401;28;20088;-79
2023/10/22 06:21:23;;;;;;;1.10;0.77;;;12.10;90.90;;;;;;5093729;28;20447;-80
2023/10/22 06:23:50;;;;;;;1.15;0.88;;;12.10;90.90;;;;;;5112183;28;20040;-79
2023/10/22 06:26:17;;;;;;;0.90;0.75;;;12.20;91.00;;;;;;5093844;28;20413;-79
2023/10/22 06:28:43;;;;;;;0.80;0.75;;;12.10;91.00;;;;;;5093900;28;20036;-78
2023/10/22 06:31:11;;;;;;;1.13;0.70;;;12.10;91.00;;;;;;5111996;28;20589;-78
2023/10/22 06:33:38;;;;;;;1.05;0.65;;;12.10;91.00;;;;;;5092856;28;20426;-79
2023/10/22 06:36:21;;;;;;;1.02;0.80;;;12.10;90.90;;;;;;5110812;28;20089;-78
2023/10/22 06:38:48;;;;;;;1.88;1.02;;;12.10;91.00;;;;;;5096487;28;20549;-78
2023/10/22 06:41:21;;;;;;;1.92;0.90;;;12.10;90.90;;;;;;5080360;28;20044;-78
2023/10/22 06:43:48;;;;;;;0.82;0.68;;;12.10;90.90;;;;;;5097537;28;20071;-80
2023/10/22 06:46:14;;;;;;;2.38;1.02;;;12.10;90.90;;;;;;5115740;28;20061;-79
2023/10/22 06:48:41;;;;;;;0.88;0.80;;;12.10;90.90;;;;;;5096529;28;20050;-78
2023/10/22 06:51:10;;;;;;;1.00;0.90;;;12.10;90.90;;;;;;5115998;28;20034;-78
2023/10/22 06:53:37;;;;;;;0.80;0.70;;;12.10;91.00;;;;;;5097410;28;20079;-79
2023/10/22 06:56:04;;;;;;;1.20;0.50;;;12.20;90.90;;;;;;5097339;28;20064;-79
2023/10/22 06:58:31;;;;;;;1.33;0.80;;;12.10;90.90;;;;;;5115677;28;20069;-80
2023/10/22 07:01:06;;;;;;;2.20;1.00;;;12.10;91.00;;;;;;5096807;28;20036;-80
2023/10/22 07:03:33;;;;;;;0.75;0.68;;;12.00;90.90;;;;;;5114058;28;20488;-80
2023/10/22 07:06:00;;;;;;;1.23;0.85;;;12.00;91.00;;;;;;5115284;28;20028;-80
2023/10/22 07:08:27;;;;;;;1.10;0.82;;;12.00;91.00;;;;;;5112043;28;20040;-79
2023/10/22 07:10:52;;;;;;;0.82;0.70;;;11.90;91.00;;;;;;5112650;28;20032;-79
2023/10/22 07:13:20;;;;;;;0.95;0.75;;;12.00;91.00;;;;;;5113669;28;20039;-79
2023/10/22 07:15:47;;;;;;;1.10;0.70;;;12.00;91.00;;;;;;5097171;28;20108;-79
2023/10/22 07:18:13;;;;;;;2.08;1.00;;;12.00;91.00;;;;;;5079350;28;20034;-80
2023/10/22 07:20:39;;;;;;;1.20;0.77;;;12.00;91.00;;;;;;5115311;28;20062;-80
2023/10/22 07:23:06;;;;;;;0.80;0.80;;;12.10;91.00;;;;;;5114729;28;20132;-80
2023/10/22 07:25:33;;;;;;;1.40;0.70;;;12.00;90.90;;;;;;5114978;28;20036;-79
2023/10/22 07:27:59;;;;;;;0.63;0.63;;;12.10;90.90;;;;;;5115540;28;20062;-79
2023/10/22 07:30:24;;;;;;;0.55;0.55;;;12.10;90.90;;;;;;5114589;28;20402;-79
2023/10/22 07:32:52;;;;;;;0.63;0.60;;;12.10;90.90;;;;;;5094435;28;20122;-79
2023/10/22 07:35:18;;;;;;;1.08;0.70;;;12.10;90.80;;;;;;5096095;28;20032;-80
2023/10/22 07:37:44;;;;;;;0.45;0.45;;;12.20;90.80;;;;;;5115202;28;20035;-79
2023/10/22 07:40:13;;;;;;;0.75;0.73;;;12.20;90.80;;;;;;5096023;28;20039;-78
2023/10/22 07:42:40;;;;;;;0.80;0.57;;;12.10;90.80;;;;;;5096276;28;20106;-79
2023/10/22 07:45:07;;;;;;;0.85;0.80;;;12.00;90.70;;;;;;5114368;28;20450;-80
2023/10/22 07:47:32;;;;;;;0.68;0.60;;;12.10;90.70;;;;;;5096347;28;20043;-79
2023/10/22 07:49:58;;;;;;;0.63;0.63;;;12.10;90.70;;;;;;5112908;28;20441;-79
2023/10/22 07:52:24;;;;;;;0.93;0.65;;;12.20;90.70;;;;;;5096600;28;20066;-78
2023/10/22 07:54:52;;;;;;;1.77;0.60;;;12.10;90.70;;;;;;5096175;28;20059;-80
2023/10/22 07:57:18;;;;;;;0.60;0.60;;;12.10;90.70;;;;;;5096082;28;20043;-79
2023/10/22 07:59:44;;;;;;;0.60;0.60;;;12.10;90.70;;;;;;5095927;28;20031;-80
2023/10/22 08:02:10;;;;;;;0.60;0.60;;;12.10;90.70;;;;;;5096041;28;20055;-79
2023/10/22 08:04:37;;;;;;;3.72;0.75;;;12.10;90.70;;;;;;5095855;28;20027;-80
2023/10/22 08:07:04;;;;;;;1.75;0.70;;;12.10;90.70;;;;;;5095250;28;20036;-78
2023/10/22 08:09:30;;;;;;;0.98;0.52;;;12.10;90.70;;;;;;5095954;28;20039;-79
2023/10/22 08:11:56;;;;;;;0.50;0.50;;;12.10;90.70;;;;;;5114192;28;20030;-78
2023/10/22 08:14:22;;;;;;;1.00;0.88;;;12.10;90.70;;;;;;5095484;28;20122;-79
2023/10/22 08:16:49;;;;;;;0.50;0.50;;;12.10;90.70;;;;;;5112959;28;20123;-79
2023/10/22 08:19:14;;;;;;;0.60;0.60;;;12.10;90.70;;;;;;5113462;28;20044;-78
2023/10/22 08:21:40;;;;;;;0.60;0.60;;;12.30;90.70;;;;;;5094732;28;20029;-80
2023/10/22 08:24:06;;;;;;;0.55;0.55;;;12.20;90.60;;;;;;5095672;28;20070;-80
2023/10/22 08:26:32;;;;;;;0.98;0.50;;;12.10;90.60;;;;;;5093676;28;20028;-80
2023/10/22 08:28:58;;;;;;;0.50;0.50;;;12.20;90.60;;;;;;5114161;28;20122;-80
2023/10/22 08:31:24;;;;;;;0.43;0.43;;;12.30;90.60;;;;;;5095052;28;20058;-80
2023/10/22 08:33:49;;;;;;;1.05;0.60;;;12.30;90.60;;;;;;5095462;28;20096;-79
2023/10/22 08:36:15;;;;;;;0.43;0.43;;;12.30;90.50;;;;;;5095691;28;20173;-80
2023/10/22 08:38:41;;;;;;;0.73;0.60;;;12.30;90.50;;;;;;5095326;28;20042;-79
2023/10/22 08:41:20;;;;;;;0.63;0.60;;;12.30;90.50;;;;;;5093482;28;20040;-80
2023/10/22 08:43:48;;;;;;;0.90;0.60;;;12.40;90.50;;;;;;5112734;28;20031;-79
2023/10/22 08:46:14;;;;;;;0.55;0.30;;;12.50;90.50;;;;;;5091381;28;20460;-80
2023/10/22 08:48:40;;;;;;;0.60;0.38;;;12.60;90.40;;;;;;5112404;28;20419;-80
2023/10/22 08:51:08;;;;;;;0.85;0.50;;;12.60;90.30;;;;;;5110413;28;20038;-81
2023/10/22 08:53:34;;;;;;;1.00;0.55;;;12.70;90.20;;;;;;5095169;28;20035;-79
2023/10/22 08:56:01;;;;;;;0.98;0.60;;;12.80;90.20;;;;;;5113948;28;20032;-80
2023/10/22 08:58:27;;;;;;;0.40;0.35;;;12.80;90.10;;;;;;5111396;28;20055;-79
2023/10/22 09:00:53;;;;;;;0.43;0.40;;;12.80;90.10;;;;;;5107929;28;20028;-79
2023/10/22 09:03:22;;;;;;;0.40;0.40;;;12.90;90.10;;;;;;5108255;28;20039;-80
2023/10/22 09:05:48;;;;;;;0.32;0.32;;;13.00;90.00;;;;;;5131238;28;20099;-79
2023/10/22 09:08:15;;;;;;;1.75;0.50;;;13.00;90.00;;;;;;5109618;28;20055;-79
2023/10/22 09:10:41;;;;;;;0.50;0.50;;;12.90;90.00;;;;;;5092731;28;20032;-80
2023/10/22 09:13:12;;;;;;;0.93;0.65;;;13.10;90.00;;;;;;5124564;28;20057;-79
2023/10/22 09:15:39;;;;;;;0.73;0.50;;;13.20;90.00;;;;;;5106879;28;20035;-79
2023/10/22 09:18:05;;;;;;;1.33;0.50;;;13.10;90.00;;;;;;5129183;28;20126;-79
2023/10/22 09:20:34;;;;;;;0.82;0.40;;;13.20;90.00;;;;;;5108913;28;20030;-80
2023/10/22 09:23:21;;;;;;;1.10;0.55;;;13.20;90.10;;;;;;5110079;28;20046;-81
2023/10/22 09:25:55;;;;;;;0.98;0.60;;;13.20;89.90;;;;;;5096968;28;20032;-80
2023/10/22 09:28:25;;;;;;;0.40;0.40;;;13.30;89.90;;;;;;5117030;28;20044;-80
2023/10/22 09:31:00;;;;;;;1.00;0.40;;;13.30;89.90;;;;;;5122826;28;20031;-79
2023/10/22 09:33:42;;;;;;;0.60;0.40;;;13.40;89.80;;;;;;5108939;28;20035;-79
2023/10/22 09:36:10;;;;;;;0.50;0.50;;;13.40;89.80;;;;;;5104516;28;20035;-80
2023/10/22 09:38:53;;;;;;;0.35;0.30;;;13.50;89.80;;;;;;5107236;28;20044;-81
2023/10/22 09:41:30;;;;;;;0.30;0.30;;;13.50;89.80;;;;;;5011299;28;20038;-80
2023/10/22 09:43:59;;;;;;;1.80;0.50;;;13.60;89.70;;;;;;5036478;28;20493;-81
2023/10/22 09:46:30;;;;;;;0.30;0.30;;;13.70;89.70;;;;;;4997545;28;20030;-81
2023/10/22 09:48:58;;;;;;;0.30;0.30;;;13.70;89.60;;;;;;4997336;28;20026;-80
2023/10/22 09:51:31;;;;;;;0.47;0.40;;;13.70;89.50;;;;;;5014083;28;20172;-81
2023/10/22 09:54:10;;;;;;;0.68;0.50;;;13.90;89.50;;;;;;4995678;28;20157;-81
2023/10/22 09:56:52;;;;;;;1.48;0.45;;;13.90;89.30;;;;;;4984925;28;20076;-78
2023/10/22 09:59:22;;;;;;;0.75;0.40;;;14.00;89.20;;;;;;4957826;28;20145;-79
2023/10/22 10:01:49;;;;;;;0.40;0.40;;;14.00;89.10;;;;;;4971272;28;20057;-81
2023/10/22 10:04:20;;;;;;;0.75;0.50;;;14.10;88.90;;;;;;4971775;28;20164;-80
2023/10/22 10:06:52;;;;;;;0.30;0.30;;;14.20;88.90;;;;;;4989154;28;20037;-79
2023/10/22 10:09:17;;;;;;;;;;;14.30;88.80;;;;;;4977004;28;20425;-79
2023/10/22 10:11:44;;;;;;;0.82;0.50;;;14.20;88.70;;;;;;5024212;28;19906;-79
2023/10/22 10:14:31;;;;;;;0.80;0.50;;;14.30;88.70;;;;;;4974034;28;20144;-79
2023/10/22 10:17:01;;;;;;;0.50;0.50;;;14.30;88.50;;;;;;4975487;28;20050;-80
2023/10/22 10:19:26;;;;;;;0.40;0.40;;;14.20;88.50;;;;;;5021847;28;20037;-80
2023/10/22 10:21:53;;;;;;;0.40;0.40;;;14.30;88.60;;;;;;5054758;28;20074;-77
2023/10/22 10:24:24;;;;;;;1.25;0.47;;;14.30;88.60;;;;;;5054969;28;20060;-78
2023/10/22 10:27:12;;;;;;;1.65;0.40;;;14.30;88.60;;;;;;5052557;28;20034;-79
2023/10/22 10:29:39;;;;;;;0.98;0.43;;;14.30;88.50;;;;;;5057614;28;20032;-81
2023/10/22 10:32:19;;;;;;;1.58;0.50;;;14.30;88.70;;;;;;5057268;28;20056;-80
2023/10/22 10:34:47;;;;;;;0.50;0.50;;;14.30;88.70;;;;;;5036719;28;20154;-80
2023/10/22 10:37:15;;;;;;;0.40;0.40;;;14.30;89.40;;;;;;5101164;28;20036;-82
2023/10/22 10:39:44;;;;;;;0.50;0.50;;;14.30;88.80;;;;;;5103480;28;20032;-79
2023/10/22 10:42:14;;;;;;;0.63;0.30;;;14.40;88.70;;;;;;5086792;28;20067;-82
2023/10/22 10:45:03;;;;;;;0.30;0.30;;;14.40;88.70;;;;;;5120772;28;20016;-82
2023/10/22 10:47:33;;;;;;;0.52;0.30;;;14.50;88.50;;;;;;5097954;28;20077;-84
2023/10/22 10:50:12;;;;;;;0.63;0.50;;;14.60;88.40;;;;;;5078674;28;20494;-81
2023/10/22 10:53:06;;;;;;;1.00;0.50;;;14.70;88.30;;;;;;5078423;28;20058;-82
2023/10/22 10:55:33;;;;;;;0.98;0.50;;;14.60;88.20;;;;;;5091727;28;20113;-81
2023/10/22 10:58:24;;;;;;;1.50;0.47;;;14.60;88.80;;;;;;5093790;28;20169;-83
2023/10/22 11:00:52;;;;;;;;;;;14.60;88.20;;;;;;5110414;28;20052;-81
2023/10/22 11:03:22;;;;;;;0.30;0.30;;;14.60;88.10;;;;;;5093119;28;19916;-81
2023/10/22 11:05:52;;;;;;;0.20;0.20;;;14.60;88.00;;;;;;5109385;28;20047;-81
2023/10/22 11:08:19;;;;;;;0.40;0.40;;;14.60;87.90;;;;;;5093117;28;20032;-81
2023/10/22 11:10:48;;;;;;;0.40;0.40;;;14.70;87.90;;;;;;5076345;28;20028;-81
2023/10/22 11:13:14;;;;;;;0.60;0.60;;;14.70;87.90;;;;;;5093243;28;20122;-81
2023/10/22 11:15:40;;;;;;;0.68;0.57;;;14.70;87.80;;;;;;5093971;28;20130;-81
2023/10/22 11:18:09;;;;;;;0.40;0.40;;;14.70;87.70;;;;;;5110385;28;20149;-81
2023/10/22 11:20:36;;;;;;;0.73;0.50;;;14.70;87.60;;;;;;5093269;28;20055;-81
2023/10/22 11:23:18;;;;;;;0.40;0.40;;;14.80;87.60;;;;;;5076338;28;20036;-82
2023/10/22 11:26:17;;;;;;;0.47;0.40;;;14.80;88.20;;;;;;5038694;28;20048;-82
2023/10/22 11:29:15;;;;;;;0.47;0.43;;;14.80;87.50;;;;;;5032785;28;20483;-81
2023/10/22 11:32:41;;;;;;;1.40;0.40;;;14.90;87.50;;;;;;5037414;28;20045;-81
2023/10/22 11:35:11;;;;;;;0.40;0.40;;;14.90;87.40;;;;;;4989778;28;20499;-82
2023/10/22 11:37:45;;;;;;;0.55;0.50;;;14.80;87.20;;;;;;4989494;28;20384;-81
2023/10/22 11:40:38;;;;;;;0.70;0.50;;;14.90;87.20;;;;;;5006445;28;20045;-81
2023/10/22 11:43:18;;;;;;;0.80;0.60;;;14.90;87.20;;;;;;4995832;28;20042;-81
2023/10/22 11:46:00;;;;;;;0.70;0.52;;;14.90;87.10;;;;;;4977286;28;20041;-80
2023/10/22 11:48:28;;;;;;;1.42;0.52;;;14.90;87.10;;;;;;4968824;28;20034;-82
2023/10/22 11:51:00;;;;;;;0.93;0.60;;;14.90;87.00;;;;;;4994835;28;20038;-81
2023/10/22 11:54:01;;;;;;;0.50;0.50;;;15.00;87.00;;;;;;4983345;28;20148;-81
2023/10/22 11:56:27;;;;;;;0.77;0.60;;;15.00;86.80;;;;;;4965352;28;20046;-81
2023/10/22 11:58:55;;;;;;;0.93;0.80;;;15.00;86.70;;;;;;4990744;28;20459;-80
2023/10/22 12:01:20;;;;;;;1.13;0.60;;;15.10;86.60;;;;;;4978082;28;20046;-79
2023/10/22 12:03:46;;;;;;;0.52;0.52;;;15.10;86.60;;;;;;4993062;28;20464;-80
2023/10/22 12:06:12;;;;;;;0.65;0.65;;;15.10;86.60;;;;;;4975886;28;20030;-81
2023/10/22 12:08:37;;;;;;;0.40;0.40;;;15.10;86.70;;;;;;4975961;28;20039;-80
2023/10/22 12:11:03;;;;;;;0.75;0.63;;;15.10;86.70;;;;;;4984528;28;20037;-80
2023/10/22 12:13:29;;;;;;;0.60;0.50;;;15.10;86.70;;;;;;5051374;28;20037;-79
2023/10/22 12:15:54;;;;;;;0.65;0.60;;;15.10;86.60;;;;;;5017365;28;20069;-80
2023/10/22 12:18:20;;;;;;;0.60;0.60;;;15.10;86.60;;;;;;5051932;28;20443;-81
2023/10/22 12:20:46;;;;;;;0.60;0.60;;;15.10;86.60;;;;;;5017876;28;20103;-80
2023/10/22 12:23:11;;;;;;;0.55;0.55;;;15.20;86.60;;;;;;5037415;28;20047;-82
2023/10/22 12:25:37;;;;;;;0.60;0.45;;;15.30;86.50;;;;;;5037440;28;20067;-81
2023/10/22 12:28:03;;;;;;;0.95;0.82;;;15.30;86.40;;;;;;5049894;28;20548;-80
2023/10/22 12:30:29;;;;;;;0.60;0.60;;;15.40;86.20;;;;;;5075299;28;20032;-81
2023/10/22 12:32:54;;;;;;;0.70;0.70;;;15.40;86.00;;;;;;5093380;28;20093;-80
2023/10/22 12:35:20;;;;;;;0.70;0.70;;;15.50;85.90;;;;;;5093304;28;20131;-80
2023/10/22 12:37:46;;;;;;;1.23;0.80;;;15.50;85.90;;;;;;5083840;28;20047;-80
2023/10/22 12:40:12;;;;;;;0.73;0.73;;;15.40;85.80;;;;;;5113945;28;20369;-80
2023/10/22 12:42:41;;;;;;;1.52;0.90;;;15.40;85.70;;;;;;5099497;28;20082;-81
2023/10/22 12:45:09;;;;;;;1.08;0.75;;;15.40;85.70;;;;;;5100629;28;20036;-81
2023/10/22 12:47:35;;;;;;;0.70;0.70;;;15.40;85.80;;;;;;5099890;28;20043;-81
2023/10/22 12:50:00;;;;;;;0.75;0.70;;;15.40;85.70;;;;;;5103040;28;20028;-81
2023/10/22 12:52:26;;;;;;;0.70;0.70;;;15.40;85.70;;;;;;5087557;28;20081;-80